Time;durP1;ratioP1;P1;durP2;ratioP2;P2;SDS_P1;SDS_P2;PMS_P1;PMS_P2;Temp;Humidity;BMP_temperature;BMP_pressure;BME280_temperature;BME280_humidity;BME280_pressure;Samples;Min_cycle;Max_cycle;Signal;HPM_P1;HPM_P2
2023/10/27 00:02:00;;;;;;;22.48;16.60;;;;;;;;;;5069338;28;20044;-89
2023/10/27 00:04:26;;;;;;;20.52;16.52;;;;;;;;;;5055289;28;20119;-90
2023/10/27 00:06:52;;;;;;;21.15;17.33;;;;;;;;;;5054036;28;20036;-89
2023/10/27 00:09:18;;;;;;;20.75;15.77;;;;;;;;;;5071790;28;20084;-89
2023/10/27 00:11:44;;;;;;;20.05;15.35;;;;;;;;;;5051400;28;20492;-89
2023/10/27 00:14:10;;;;;;;22.77;16.95;;;;;;;;;;5067135;28;20040;-89
2023/10/27 00:16:36;;;;;;;23.98;16.58;;;;;;;;;;5029094;28;20041;-89
2023/10/27 00:19:02;;;;;;;23.83;16.13;;;;;;;;;;5053027;28;20136;-89
2023/10/27 00:21:28;;;;;;;21.65;16.08;;;;;;;;;;5050727;28;20582;-89
2023/10/27 00:23:54;;;;;;;23.17;16.60;;;;;;;;;;5056351;28;20559;-89
2023/10/27 00:26:20;;;;;;;24.02;16.42;;;;;;;;;;5039070;28;20179;-89
2023/10/27 00:28:47;;;;;;;23.95;16.60;;;;;;;;;;5038439;28;20047;-89
2023/10/27 00:31:14;;;;;;;23.38;15.85;;;;;;;;;;5055458;28;20039;-89
2023/10/27 00:33:40;;;;;;;22.20;17.02;;;;;;;;;;5070417;28;20033;-89
2023/10/27 00:36:06;;;;;;;25.40;16.73;;;;;;;;;;5054719;28;20123;-89
2023/10/27 00:38:32;;;;;;;21.50;15.35;;;;;;;;;;5053365;28;20041;-89
2023/10/27 00:40:58;;;;;;;17.95;15.05;;;;;;;;;;5037352;28;20252;-89
2023/10/27 00:43:24;;;;;;;21.88;15.50;;;;;;;;;;5072138;28;20044;-89
2023/10/27 00:45:53;;;;;;;20.55;15.05;;;;;;;;;;5049871;28;21246;-89
2023/10/27 00:48:20;;;;;;;18.13;14.82;;;;;;;;;;5053588;28;20052;-89
2023/10/27 00:50:47;;;;;;;18.65;14.60;;;;;;;;;;5053325;28;20044;-88
2023/10/27 00:53:14;;;;;;;19.48;15.00;;;;;;;;;;5036002;28;20045;-89
2023/10/27 00:55:41;;;;;;;21.20;14.43;;;;;;;;;;5053394;28;20052;-89
2023/10/27 00:58:10;;;;;;;19.63;14.25;;;;;;;;;;5053981;28;20578;-90
2023/10/27 01:00:37;;;;;;;18.92;14.63;;;;;;;;;;5036084;28;20412;-89
2023/10/27 01:03:04;;;;;;;20.20;14.88;;;;;;;;;;5068586;28;20059;-89
2023/10/27 01:05:30;;;;;;;21.48;14.70;;;;;;;;;;5063018;28;20091;-90
2023/10/27 01:07:56;;;;;;;19.58;14.55;;;;;;;;;;5067081;28;20048;-88
2023/10/27 01:10:23;;;;;;;26.10;16.35;;;;;;;;;;5054823;28;20056;-89
2023/10/27 01:12:50;;;;;;;21.55;15.57;;;;;;;;;;5070048;28;20040;-89
2023/10/27 01:15:16;;;;;;;19.88;15.15;;;;;;;;;;5051916;28;20041;-89
2023/10/27 01:17:43;;;;;;;21.30;15.77;;;;;;;;;;5068109;28;20044;-90
2023/10/27 01:20:09;;;;;;;19.52;14.73;;;;;;;;;;5071042;28;20461;-89
2023/10/27 01:22:42;;;;;;;17.70;14.65;;;;;;;;;;5033416;28;20040;-90
2023/10/27 01:25:09;;;;;;;17.60;15.05;;;;;;;;;;5051644;28;20037;-88
2023/10/27 01:27:35;;;;;;;19.67;15.10;;;;;;;;;;5048469;28;20543;-89
2023/10/27 01:30:01;;;;;;;20.52;14.40;;;;;;;;;;5049035;28;20036;-89
2023/10/27 01:32:27;;;;;;;18.80;14.60;;;;;;;;;;5051133;28;20102;-89
2023/10/27 01:34:53;;;;;;;20.52;15.73;;;;;;;;;;5035124;28;20048;-89
2023/10/27 01:37:19;;;;;;;21.52;15.95;;;;;;;;;;5048275;28;20581;-89
2023/10/27 01:39:46;;;;;;;21.80;16.65;;;;;;;;;;5049545;28;20377;-89
2023/10/27 01:42:12;;;;;;;22.80;16.55;;;;;;;;;;5069604;28;20103;-89
2023/10/27 01:44:38;;;;;;;21.25;16.17;;;;;;;;;;5035758;28;20059;-89
2023/10/27 01:47:04;;;;;;;19.73;15.95;;;;;;;;;;5055035;28;20070;-90
2023/10/27 01:49:30;;;;;;;23.45;17.55;;;;;;;;;;5055817;28;20029;-89
2023/10/27 01:51:56;;;;;;;28.27;17.15;;;;;;;;;;5037266;28;20561;-89
2023/10/27 01:54:22;;;;;;;21.33;16.30;;;;;;;;;;5071866;28;20036;-89
2023/10/27 01:56:48;;;;;;;20.92;16.58;;;;;;;;;;5070794;28;20108;-90
2023/10/27 01:59:15;;;;;;;22.30;16.25;;;;;;;;;;5053407;28;20032;-89
2023/10/27 02:01:41;;;;;;;22.20;16.52;;;;;;;;;;5031512;28;20044;-89
2023/10/27 02:04:07;;;;;;;27.63;16.55;;;;;;;;;;5051212;28;20067;-87
2023/10/27 02:06:33;;;;;;;26.70;17.33;;;;;;;;;;5036083;28;20036;-89
2023/10/27 02:08:59;;;;;;;24.60;17.30;;;;;;;;;;5037868;28;20554;-89
2023/10/27 02:11:25;;;;;;;28.20;17.45;;;;;;;;;;5036555;28;20080;-87
2023/10/27 02:13:51;;;;;;;25.65;17.67;;;;;;;;;;5035844;28;20043;-87
2023/10/27 02:16:17;;;;;;;23.90;17.17;;;;;;;;;;5049905;28;22902;-89
2023/10/27 02:18:43;;;;;;;25.92;16.58;;;;;;;;;;5047474;28;20044;-90
2023/10/27 02:21:09;;;;;;;25.77;18.73;;;;;;;;;;5033546;28;20037;-87
2023/10/27 02:23:35;;;;;;;24.70;18.95;;;;;;;;;;5049480;28;20089;-86
2023/10/27 02:26:01;;;;;;;23.88;17.35;;;;;;;;;;5046106;28;20037;-86
2023/10/27 02:28:27;;;;;;;24.27;17.67;;;;;;;;;;5064294;28;20074;-87
2023/10/27 02:30:53;;;;;;;23.83;17.58;;;;;;;;;;5050966;28;20471;-85
2023/10/27 02:33:20;;;;;;;28.08;17.75;;;;;;;;;;5051534;28;20044;-87
2023/10/27 02:35:46;;;;;;;24.55;17.45;;;;;;;;;;5069101;28;20064;-87
2023/10/27 02:38:12;;;;;;;22.65;16.88;;;;;;;;;;5052058;28;20040;-87
2023/10/27 02:40:38;;;;;;;22.13;16.63;;;;;;;;;;5050120;28;20040;-87
2023/10/27 02:43:04;;;;;;;24.75;16.00;;;;;;;;;;5046220;28;20430;-87
2023/10/27 02:45:30;;;;;;;22.90;16.33;;;;;;;;;;5048213;28;20042;-87
2023/10/27 02:47:56;;;;;;;21.92;16.33;;;;;;;;;;5061871;28;20098;-88
2023/10/27 02:50:22;;;;;;;23.02;16.23;;;;;;;;;;5047658;28;20148;-87
2023/10/27 02:52:48;;;;;;;24.30;16.80;;;;;;;;;;5026490;28;20519;-88
2023/10/27 02:55:15;;;;;;;24.85;16.70;;;;;;;;;;5062836;28;20064;-86
2023/10/27 02:57:41;;;;;;;22.95;17.38;;;;;;;;;;5065597;28;20036;-86
2023/10/27 03:00:07;;;;;;;27.15;17.00;;;;;;;;;;5049407;28;20097;-88
2023/10/27 03:02:33;;;;;;;20.52;16.08;;;;;;;;;;5065560;28;20040;-87
2023/10/27 03:05:00;;;;;;;25.13;16.45;;;;;;;;;;5048110;28;20447;-87
2023/10/27 03:07:26;;;;;;;23.02;17.13;;;;;;;;;;5047996;28;20040;-87
2023/10/27 03:09:52;;;;;;;25.02;16.75;;;;;;;;;;5070510;28;20510;-87
2023/10/27 03:12:19;;;;;;;24.42;18.00;;;;;;;;;;5048731;28;20435;-86
2023/10/27 03:14:45;;;;;;;26.30;16.83;;;;;;;;;;5051086;28;20045;-87
2023/10/27 03:17:11;;;;;;;24.73;18.52;;;;;;;;;;5067351;28;20040;-89
2023/10/27 03:19:37;;;;;;;27.30;17.33;;;;;;;;;;5033622;28;20097;-88
2023/10/27 03:22:05;;;;;;;24.35;16.75;;;;;;;;;;5071183;28;20044;-90
2023/10/27 03:24:31;;;;;;;22.92;17.02;;;;;;;;;;5066598;28;20493;-91
2023/10/27 03:26:57;;;;;;;26.30;17.23;;;;;;;;;;5051777;28;20094;-91
2023/10/27 03:29:23;;;;;;;23.67;16.65;;;;;;;;;;5047437;28;20020;-91
2023/10/27 03:31:52;;;;;;;24.40;17.55;;;;;;;;;;5042546;28;20041;-90
2023/10/27 03:34:18;;;;;;;23.70;16.98;;;;;;;;;;5036979;28;20064;-90
2023/10/27 03:36:44;;;;;;;24.63;17.02;;;;;;;;;;5052029;28;20488;-88
2023/10/27 03:39:10;;;;;;;21.35;16.38;;;;;;;;;;5050039;28;20119;-91
2023/10/27 03:41:36;;;;;;;21.10;16.33;;;;;;;;;;5054183;28;20047;-90
2023/10/27 03:44:02;;;;;;;23.50;17.45;;;;;;;;;;5050464;28;20060;-93
2023/10/27 03:46:28;;;;;;;24.73;16.50;;;;;;;;;;5050594;28;20040;-89
2023/10/27 03:48:55;;;;;;;24.00;17.00;;;;;;;;;;5051613;28;20044;-89
2023/10/27 03:51:21;;;;;;;22.55;17.92;;;;;;;;;;5030016;28;20419;-92
2023/10/27 03:53:47;;;;;;;24.35;17.38;;;;;;;;;;5027684;28;20480;-91
2023/10/27 03:56:13;;;;;;;21.65;16.67;;;;;;;;;;5034953;28;20040;-88
2023/10/27 03:58:39;;;;;;;24.75;16.88;;;;;;;;;;5046754;28;20033;-90
2023/10/27 04:01:06;;;;;;;26.52;17.42;;;;;;;;;;5035725;28;20488;-90
2023/10/27 04:03:33;;;;;;;29.98;16.98;;;;;;;;;;5048086;28;20072;-90
2023/10/27 04:05:59;;;;;;;24.42;17.13;;;;;;;;;;5050384;28;20059;-88
2023/10/27 04:08:25;;;;;;;24.05;16.48;;;;;;;;;;5052041;28;20059;-91
2023/10/27 04:10:52;;;;;;;29.17;17.60;;;;;;;;;;5064899;28;20087;-89
2023/10/27 04:13:18;;;;;;;24.63;17.27;;;;;;;;;;5067019;28;20040;-92
2023/10/27 04:15:44;;;;;;;24.45;16.65;;;;;;;;;;5051915;28;20578;-91
2023/10/27 04:18:11;;;;;;;21.02;16.67;;;;;;;;;;5036401;28;20037;-92
2023/10/27 04:20:38;;;;;;;20.67;15.95;;;;;;;;;;5071361;28;20181;-88
2023/10/27 04:23:06;;;;;;;21.17;16.48;;;;;;;;;;5070832;28;20475;-90
2023/10/27 04:25:32;;;;;;;24.15;16.73;;;;;;;;;;5045480;28;20044;-89
2023/10/27 04:27:58;;;;;;;19.58;15.52;;;;;;;;;;5064228;28;20048;-89
2023/10/27 04:30:26;;;;;;;21.52;15.98;;;;;;;;;;5044511;28;20041;-89
2023/10/27 04:32:52;;;;;;;22.20;15.73;;;;;;;;;;5045511;28;20369;-90
2023/10/27 04:35:18;;;;;;;20.55;16.35;;;;;;;;;;5051265;28;20040;-89
2023/10/27 04:37:44;;;;;;;21.65;15.75;;;;;;;;;;5067501;28;20028;-89
2023/10/27 04:40:11;;;;;;;23.83;16.00;;;;;;;;;;5030854;28;20044;-89
2023/10/27 04:42:37;;;;;;;22.80;16.60;;;;;;;;;;5085523;28;20032;-90
2023/10/27 04:45:03;;;;;;;25.35;16.63;;;;;;;;;;5070199;28;20036;-90
2023/10/27 04:47:30;;;;;;;21.80;16.02;;;;;;;;;;5034361;28;20113;-88
2023/10/27 04:49:56;;;;;;;19.65;16.35;;;;;;;;;;5051466;28;20063;-90
2023/10/27 04:52:22;;;;;;;18.40;15.82;;;;;;;;;;5071501;28;20411;-91
2023/10/27 04:54:48;;;;;;;20.85;16.75;;;;;;;;;;5053607;28;20032;-90
2023/10/27 04:57:14;;;;;;;20.77;16.65;;;;;;;;;;5055266;28;20037;-89
2023/10/27 04:59:40;;;;;;;21.33;17.10;;;;;;;;;;5051392;28;20033;-91
2023/10/27 05:02:06;;;;;;;23.83;17.17;;;;;;;;;;5069821;28;20114;-90
2023/10/27 05:04:32;;;;;;;24.27;16.23;;;;;;;;;;5066415;28;20044;-90
2023/10/27 05:06:59;;;;;;;20.30;16.83;;;;;;;;;;5050109;28;20618;-90
2023/10/27 05:09:25;;;;;;;20.48;16.13;;;;;;;;;;5053183;28;20043;-90
2023/10/27 05:11:51;;;;;;;20.08;16.27;;;;;;;;;;5038854;28;20041;-92
2023/10/27 05:14:17;;;;;;;19.95;15.88;;;;;;;;;;5037675;28;20044;-92
2023/10/27 05:16:43;;;;;;;22.13;16.60;;;;;;;;;;5065677;28;20048;-92
2023/10/27 05:19:09;;;;;;;21.52;15.73;;;;;;;;;;5055376;28;20097;-91
2023/10/27 05:21:35;;;;;;;24.27;16.88;;;;;;;;;;5055309;28;20086;-91
2023/10/27 05:24:02;;;;;;;23.48;16.90;;;;;;;;;;5072118;28;20044;-91
2023/10/27 05:26:28;;;;;;;24.63;16.55;;;;;;;;;;5070218;28;20385;-92
2023/10/27 05:28:54;;;;;;;22.42;16.45;;;;;;;;;;5051711;28;20039;-91
2023/10/27 05:31:21;;;;;;;22.23;16.95;;;;;;;;;;5039661;28;20044;-92
2023/10/27 05:33:47;;;;;;;25.55;16.77;;;;;;;;;;5037290;28;20088;-92
2023/10/27 05:36:13;;;;;;;20.65;15.02;;;;;;;;;;5051903;28;20045;-91
2023/10/27 05:38:39;;;;;;;21.67;15.98;;;;;;;;;;5070931;28;20051;-92
2023/10/27 05:41:05;;;;;;;19.85;15.90;;;;;;;;;;5068726;28;20743;-87
2023/10/27 05:43:31;;;;;;;21.02;16.08;;;;;;;;;;5049227;28;20037;-87
2023/10/27 05:45:57;;;;;;;21.92;16.17;;;;;;;;;;5052485;28;20044;-88
2023/10/27 05:48:23;;;;;;;21.40;16.40;;;;;;;;;;5034091;28;20043;-86
2023/10/27 05:50:49;;;;;;;21.33;16.85;;;;;;;;;;5028597;28;20779;-86
2023/10/27 05:53:15;;;;;;;20.67;15.70;;;;;;;;;;5049907;28;20094;-85
2023/10/27 05:55:43;;;;;;;21.60;16.00;;;;;;;;;;5049777;28;20051;-86
2023/10/27 05:58:09;;;;;;;20.60;16.10;;;;;;;;;;5047445;28;20128;-86
2023/10/27 06:00:35;;;;;;;21.83;15.68;;;;;;;;;;5047961;28;20048;-85
2023/10/27 06:03:01;;;;;;;22.48;16.23;;;;;;;;;;5065333;28;20135;-85
2023/10/27 06:05:27;;;;;;;21.08;16.17;;;;;;;;;;5055486;28;20036;-87
2023/10/27 06:07:53;;;;;;;18.88;14.65;;;;;;;;;;5031699;28;20044;-86
2023/10/27 06:10:20;;;;;;;19.90;14.10;;;;;;;;;;5082725;28;20516;-87
2023/10/27 06:12:46;;;;;;;20.63;14.35;;;;;;;;;;5040665;28;20040;-87
2023/10/27 06:15:12;;;;;;;15.32;12.70;;;;;;;;;;5046541;28;20059;-89
2023/10/27 06:17:38;;;;;;;15.05;12.63;;;;;;;;;;5063586;28;20492;-87
2023/10/27 06:20:05;;;;;;;15.45;12.50;;;;;;;;;;5031527;28;20677;-86
2023/10/27 06:22:31;;;;;;;16.98;13.20;;;;;;;;;;5070259;28;20079;-87
2023/10/27 06:24:57;;;;;;;14.52;11.57;;;;;;;;;;5037177;28;20033;-87
2023/10/27 06:27:23;;;;;;;15.73;12.40;;;;;;;;;;5050502;28;20040;-84
2023/10/27 06:29:49;;;;;;;16.23;12.85;;;;;;;;;;5052542;28;20033;-86
2023/10/27 06:32:16;;;;;;;18.85;12.27;;;;;;;;;;5069417;28;20399;-86
2023/10/27 06:34:42;;;;;;;15.27;12.00;;;;;;;;;;5050455;28;20216;-86
2023/10/27 06:37:08;;;;;;;18.20;12.27;;;;;;;;;;5084562;28;20041;-87
2023/10/27 06:39:34;;;;;;;16.02;12.23;;;;;;;;;;5069098;28;20033;-88
2023/10/27 06:42:00;;;;;;;15.35;12.63;;;;;;;;;;5050998;28;20037;-87
2023/10/27 06:44:27;;;;;;;15.30;11.52;;;;;;;;;;5055092;28;20464;-88
2023/10/27 06:46:53;;;;;;;13.77;11.05;;;;;;;;;;5050009;28;20037;-87
2023/10/27 06:49:20;;;;;;;16.38;11.90;;;;;;;;;;5050660;28;20041;-88
2023/10/27 06:51:47;;;;;;;16.60;11.38;;;;;;;;;;5053951;28;20053;-87
2023/10/27 06:54:14;;;;;;;18.90;11.82;;;;;;;;;;5048467;28;20049;-87
2023/10/27 06:56:40;;;;;;;18.10;11.40;;;;;;;;;;5071329;28;20047;-87
2023/10/27 06:59:06;;;;;;;17.23;11.70;;;;;;;;;;5053605;28;20051;-87
2023/10/27 07:01:32;;;;;;;17.30;12.27;;;;;;;;;;5054997;28;20090;-88
2023/10/27 07:03:58;;;;;;;17.73;12.20;;;;;;;;;;5068743;28;20032;-88
2023/10/27 07:06:25;;;;;;;13.75;10.90;;;;;;;;;;5056654;28;20043;-88
2023/10/27 07:08:51;;;;;;;13.10;10.50;;;;;;;;;;5053694;28;20720;-88
2023/10/27 07:11:17;;;;;;;14.85;10.73;;;;;;;;;;5056819;28;20036;-88
2023/10/27 07:13:43;;;;;;;14.20;10.25;;;;;;;;;;5069088;28;20044;-88
2023/10/27 07:16:10;;;;;;;13.68;10.18;;;;;;;;;;5049471;28;20497;-88
2023/10/27 07:18:36;;;;;;;15.55;10.98;;;;;;;;;;5066486;28;20037;-86
2023/10/27 07:21:05;;;;;;;13.00;10.10;;;;;;;;;;5054739;28;20051;-88
2023/10/27 07:23:31;;;;;;;11.63;9.57;;;;;;;;;;5052618;28;20094;-88
2023/10/27 07:25:57;;;;;;;13.48;9.35;;;;;;;;;;5052724;28;20036;-88
2023/10/27 07:28:23;;;;;;;12.32;9.80;;;;;;;;;;5035970;28;20554;-88
2023/10/27 07:30:49;;;;;;;13.10;9.05;;;;;;;;;;5052075;28;20506;-88
2023/10/27 07:33:16;;;;;;;10.82;8.50;;;;;;;;;;5051106;28;20404;-88
2023/10/27 07:35:42;;;;;;;11.20;8.95;;;;;;;;;;5039147;28;20036;-88
2023/10/27 07:38:08;;;;;;;12.77;8.60;;;;;;;;;;5068768;28;20096;-87
2023/10/27 07:40:35;;;;;;;12.60;8.40;;;;;;;;;;5068483;28;20032;-87
2023/10/27 07:43:01;;;;;;;12.80;7.60;;;;;;;;;;5052305;28;20045;-87
2023/10/27 07:45:27;;;;;;;9.43;7.78;;;;;;;;;;5050980;28;20040;-88
2023/10/27 07:47:54;;;;;;;18.88;8.35;;;;;;;;;;5052308;28;20043;-87
2023/10/27 07:50:20;;;;;;;11.90;7.70;;;;;;;;;;5034706;28;20061;-87
2023/10/27 07:52:46;;;;;;;10.90;8.27;;;;;;;;;;5034143;28;20391;-87
2023/10/27 07:55:12;;;;;;;11.02;8.35;;;;;;;;;;5049642;28;20036;-88
2023/10/27 07:57:39;;;;;;;11.02;8.00;;;;;;;;;;5028111;28;20040;-87
2023/10/27 08:00:09;;;;;;;10.38;7.65;;;;;;;;;;5051783;28;20090;-88
2023/10/27 08:02:35;;;;;;;11.70;7.57;;;;;;;;;;5032425;28;20037;-88
2023/10/27 08:05:01;;;;;;;11.05;7.32;;;;;;;;;;5051781;28;20147;-88
2023/10/27 08:07:29;;;;;;;10.57;7.15;;;;;;;;;;5053976;28;20127;-87
2023/10/27 08:09:56;;;;;;;13.07;7.82;;;;;;;;;;5055706;28;20139;-88
2023/10/27 08:12:25;;;;;;;9.25;6.88;;;;;;;;;;5054235;28;20037;-88
2023/10/27 08:14:51;;;;;;;10.80;6.53;;;;;;;;;;5051435;28;20033;-89
2023/10/27 08:17:17;;;;;;;9.05;6.55;;;;;;;;;;5050070;28;20041;-89
2023/10/27 08:19:43;;;;;;;8.75;6.68;;;;;;;;;;5040818;28;20395;-91
2023/10/27 08:22:10;;;;;;;9.40;7.10;;;;;;;;;;5031713;28;20048;-91
2023/10/27 08:24:36;;;;;;;9.20;6.60;;;;;;;;;;5053083;28;20064;-90
2023/10/27 08:27:02;;;;;;;9.20;6.47;;;;;;;;;;5055833;28;20111;-90
2023/10/27 08:29:28;;;;;;;9.38;6.75;;;;;;;;;;5069268;28;20648;-91
2023/10/27 08:31:54;;;;;;;9.25;6.32;;;;;;;;;;5065861;28;21341;-90
2023/10/27 08:34:21;;;;;;;8.05;6.50;;;;;;;;;;5065528;28;20036;-89
2023/10/27 08:36:48;;;;;;;8.48;6.28;;;;;;;;;;5052121;28;20076;-91
2023/10/27 08:39:14;;;;;;;8.02;6.32;;;;;;;;;;5069916;28;20123;-90
2023/10/27 08:41:40;;;;;;;8.13;6.15;;;;;;;;;;5058635;28;20037;-90
2023/10/27 08:44:07;;;;;;;8.73;5.85;;;;;;;;;;5047243;28;20066;-89
2023/10/27 08:46:34;;;;;;;9.23;6.82;;;;;;;;;;5072876;28;20407;-89
2023/10/27 08:49:00;;;;;;;9.35;6.32;;;;;;;;;;5054701;28;20039;-89
2023/10/27 08:51:27;;;;;;;10.60;6.20;;;;;;;;;;5049098;28;20048;-92
2023/10/27 08:53:53;;;;;;;10.73;6.30;;;;;;;;;;5070805;28;20052;-92
2023/10/27 08:56:19;;;;;;;10.63;5.97;;;;;;;;;;5054356;28;20051;-92
2023/10/27 08:58:50;;;;;;;6.72;5.57;;;;;;;;;;5052800;28;20037;-89
2023/10/27 09:01:16;;;;;;;8.18;6.00;;;;;;;;;;5037303;28;20053;-90
2023/10/27 09:04:04;;;;;;;7.70;5.97;;;;;;;;;;5053436;28;20044;-89
2023/10/27 09:06:30;;;;;;;6.93;5.20;;;;;;;;;;5070487;28;20075;-89
2023/10/27 09:08:56;;;;;;;7.63;5.35;;;;;;;;;;5050765;28;20473;-90
2023/10/27 09:11:22;;;;;;;9.27;5.10;;;;;;;;;;5051717;28;20177;-90
2023/10/27 09:13:48;;;;;;;7.40;5.65;;;;;;;;;;5052830;28;20036;-90
2023/10/27 09:16:28;;;;;;;7.55;5.25;;;;;;;;;;5067466;28;20043;-91
2023/10/27 09:18:55;;;;;;;8.93;6.13;;;;;;;;;;5052812;28;20047;-90
2023/10/27 09:21:44;;;;;;;7.25;5.20;;;;;;;;;;5051606;28;20044;-89
2023/10/27 09:24:11;;;;;;;8.52;6.25;;;;;;;;;;5050942;28;20060;-89
2023/10/27 09:26:46;;;;;;;7.03;4.97;;;;;;;;;;5049723;28;20040;-90
2023/10/27 09:29:12;;;;;;;7.35;5.63;;;;;;;;;;5067968;28;20165;-90
2023/10/27 09:31:39;;;;;;;5.72;5.07;;;;;;;;;;5067011;28;20048;-89
2023/10/27 09:34:18;;;;;;;6.32;5.38;;;;;;;;;;5056535;28;20044;-89
2023/10/27 09:36:48;;;;;;;6.70;5.70;;;;;;;;;;5077633;28;20044;-89
2023/10/27 09:39:20;;;;;;;6.40;5.70;;;;;;;;;;5056920;28;20049;-89
2023/10/27 09:41:51;;;;;;;6.10;5.35;;;;;;;;;;5073657;28;20045;-90
2023/10/27 09:44:20;;;;;;;7.18;5.30;;;;;;;;;;5059558;28;20036;-88
2023/10/27 09:46:53;;;;;;;6.90;5.28;;;;;;;;;;5058976;28;20182;-88
2023/10/27 09:49:24;;;;;;;7.35;5.68;;;;;;;;;;5038498;28;20116;-88
2023/10/27 09:51:53;;;;;;;6.88;5.53;;;;;;;;;;5078594;28;20052;-88
2023/10/27 09:54:19;;;;;;;8.38;6.35;;;;;;;;;;5068548;28;20053;-89
2023/10/27 09:56:46;;;;;;;8.85;6.30;;;;;;;;;;5078555;28;20075;-88
2023/10/27 09:59:12;;;;;;;7.57;5.93;;;;;;;;;;5064415;28;20051;-89
2023/10/27 10:01:39;;;;;;;8.73;5.70;;;;;;;;;;5072905;28;20040;-85
2023/10/27 10:04:06;;;;;;;9.07;6.57;;;;;;;;;;5038271;28;20081;-86
2023/10/27 10:06:32;;;;;;;8.43;6.63;;;;;;;;;;5056737;28;20476;-85
2023/10/27 10:09:18;;;;;;;7.03;5.63;;;;;;;;;;5072759;28;20175;-86
2023/10/27 10:11:51;;;;;;;5.90;5.28;;;;;;;;;;5051255;28;20154;-86
2023/10/27 10:14:39;;;;;;;7.53;6.30;;;10.60;99.90;;;;;;5057669;28;20154;-88
2023/10/27 10:17:05;;;;;;;6.43;5.03;;;;;;;;;;5072601;28;20042;-86
2023/10/27 10:19:48;;;;;;;8.18;6.35;;;;;;;;;;5072868;28;20513;-85
2023/10/27 10:22:51;;;;;;;6.85;5.60;;;;;;;;;;5055093;28;20407;-87
2023/10/27 10:25:21;;;;;;;6.53;5.07;;;;;;;;;;5056667;28;20033;-86
2023/10/27 10:28:08;;;;;;;8.60;5.93;;;10.90;99.90;;;;;;5047471;28;20040;-86
2023/10/27 10:30:41;;;;;;;6.68;5.28;;;;;;;;;;5072126;28;20040;-85
2023/10/27 10:33:16;;;;;;;9.70;6.78;;;;;;;;;;5052310;28;20067;-86
2023/10/27 10:35:49;;;;;;;8.88;6.88;;;;;;;;;;5068779;28;20044;-85
2023/10/27 10:38:22;;;;;;;6.60;5.80;;;;;;;;;;5053892;28;20053;-86
2023/10/27 10:40:55;;;;;;;6.40;5.45;;;;;;;;;;5054220;28;20052;-86
2023/10/27 10:43:26;;;;;;;8.88;7.38;;;;;;;;;;5066900;28;20041;-86
2023/10/27 10:45:54;;;;;;;7.35;5.63;;;;;;;;;;5050503;28;20582;-85
2023/10/27 10:48:21;;;;;;;8.77;5.97;;;;;;;;;;5070776;28;20032;-86
2023/10/27 10:50:48;;;;;;;6.90;5.72;;;;;;;;;;5054931;28;20178;-85
2023/10/27 10:53:17;;;;;;;7.28;6.15;;;;;;;;;;5055070;28;20095;-86
2023/10/27 10:55:45;;;;;;;11.32;6.78;;;;;;;;;;5070082;28;20044;-86
2023/10/27 10:58:11;;;;;;;7.07;6.05;;;;;;;;;;5048602;28;20044;-87
2023/10/27 11:00:37;;;;;;;13.30;7.38;;;;;;;;;;5056361;28;20033;-86
2023/10/27 11:03:07;;;;;;;8.85;6.90;;;;;;;;;;5072834;28;20067;-86
2023/10/27 11:05:33;;;;;;;9.10;6.95;;;;;;;;;;5072369;28;20086;-86
2023/10/27 11:07:59;;;;;;;7.25;6.13;;;;;;;;;;5053684;28;20036;-87
2023/10/27 11:10:25;;;;;;;8.18;6.07;;;;;;;;;;5036434;28;20098;-86
2023/10/27 11:12:51;;;;;;;8.95;6.85;;;;;;;;;;5052643;28;20036;-87
2023/10/27 11:15:43;;;;;;;8.05;6.95;;;11.10;99.90;;;;;;5054849;28;20120;-87
2023/10/27 11:18:16;;;;;;;8.63;6.60;;;;;;;;;;5055881;28;20036;-86
2023/10/27 11:20:43;;;;;;;6.85;5.20;;;;;;;;;;5050193;28;20463;-86
2023/10/27 11:23:10;;;;;;;7.45;5.50;;;;;;;;;;5053697;28;20047;-87
2023/10/27 11:25:37;;;;;;;7.45;5.63;;;;;;;;;;5056293;28;20066;-88
2023/10/27 11:28:18;;;;;;;6.40;5.43;;;;;;;;;;5070935;28;20555;-87
2023/10/27 11:30:56;;;;;;;7.75;6.00;;;;;;;;;;5047689;28;20041;-86
2023/10/27 11:33:25;;;;;;;6.93;5.53;;;;;;;;;;5072668;28;20040;-87
2023/10/27 11:35:51;;;;;;;7.53;5.65;;;;;;;;;;5057491;28;20062;-89
2023/10/27 11:38:17;;;;;;;9.23;6.45;;;;;;;;;;5041000;28;20546;-88
2023/10/27 11:40:43;;;;;;;8.05;6.25;;;;;;;;;;5058900;28;20068;-89
2023/10/27 11:43:09;;;;;;;9.68;6.40;;;;;;;;;;5053233;28;20045;-88
2023/10/27 11:45:35;;;;;;;19.95;12.60;;;;;;;;;;5058028;28;20033;-88
2023/10/27 11:48:01;;;;;;;7.70;6.50;;;;;;;;;;5058352;28;20035;-88
2023/10/27 11:50:28;;;;;;;8.68;6.50;;;;;;;;;;5037689;28;20519;-88
2023/10/27 11:52:54;;;;;;;15.38;8.90;;;;;;;;;;5037144;28;20476;-87
2023/10/27 11:55:20;;;;;;;8.25;6.93;;;;;;;;;;5040397;28;20037;-87
2023/10/27 11:57:46;;;;;;;8.52;7.30;;;;;;;;;;5052514;28;20033;-87
2023/10/27 12:00:12;;;;;;;10.60;7.72;;;;;;;;;;5053982;28;20033;-88
2023/10/27 12:02:38;;;;;;;8.77;6.72;;;;;;;;;;5056525;28;20484;-90
2023/10/27 12:05:04;;;;;;;8.38;6.38;;;;;;;;;;5067365;28;20050;-88
2023/10/27 12:07:30;;;;;;;11.60;8.00;;;;;;;;;;5041377;28;20045;-89
2023/10/27 12:09:56;;;;;;;12.68;7.75;;;;;;;;;;5066999;28;20051;-81
2023/10/27 12:12:23;;;;;;;11.05;9.05;;;;;;;;;;5060589;28;20078;-81
2023/10/27 12:14:49;;;;;;;9.45;7.65;;;;;;;;;;5046691;28;20072;-82
2023/10/27 12:17:15;;;;;;;10.77;7.80;;;;;;;;;;5047034;28;20154;-84
2023/10/27 12:19:41;;;;;;;10.25;8.85;;;;;;;;;;5048901;28;20413;-81
2023/10/27 12:22:09;;;;;;;12.05;8.98;;;;;;;;;;5043008;28;20033;-82
2023/10/27 12:24:35;;;;;;;8.45;7.45;;;;;;;;;;5046886;28;20048;-81
2023/10/27 12:27:01;;;;;;;9.50;8.50;;;;;;;;;;5047841;28;20620;-83
2023/10/27 12:29:27;;;;;;;10.55;8.02;;;;;;;;;;5035309;28;20606;-82
2023/10/27 12:31:55;;;;;;;9.43;7.90;;;;;;;;;;5067174;28;20487;-81
2023/10/27 12:34:21;;;;;;;9.75;8.43;;;;;;;;;;5046684;28;20086;-81
2023/10/27 12:36:50;;;;;;;9.93;8.50;;;;;;;;;;5044094;28;20047;-82
2023/10/27 12:39:16;;;;;;;12.00;9.15;;;;;;;;;;5051739;28;20439;-82
2023/10/27 12:41:43;;;;;;;10.32;9.07;;;;;;;;;;5045826;28;20045;-83
2023/10/27 12:44:10;;;;;;;11.02;9.48;;;;;;;;;;5064488;28;20048;-83
2023/10/27 12:46:36;;;;;;;10.40;9.20;;;;;;;;;;5025923;28;20063;-82
2023/10/27 12:49:03;;;;;;;11.45;10.15;;;;;;;;;;5044613;28;20075;-81
2023/10/27 12:51:30;;;;;;;13.40;10.75;;;;;;;;;;5065888;28;20067;-82
2023/10/27 12:53:56;;;;;;;13.07;11.18;;;;;;;;;;5052984;28;20048;-81
2023/10/27 12:56:22;;;;;;;13.20;10.85;;;;;;;;;;5052028;28;20040;-82
2023/10/27 12:58:49;;;;;;;13.90;11.60;;;;;;;;;;5049934;28;20127;-82
2023/10/27 13:01:16;;;;;;;14.18;11.80;;;;;;;;;;5051757;28;21234;-84
2023/10/27 13:03:42;;;;;;;21.75;12.43;;;;;;;;;;5069687;28;20115;-82
2023/10/27 13:06:14;;;;;;;17.15;13.43;;;;;;;;;;5050901;28;20468;-83
2023/10/27 13:08:40;;;;;;;16.33;13.35;;;;;;;;;;5068222;28;20348;-83
2023/10/27 13:11:06;;;;;;;24.13;14.85;;;;;;;;;;5066573;28;20036;-82
2023/10/27 13:13:34;;;;;;;17.77;14.10;;;;;;;;;;5052400;28;20036;-83
2023/10/27 13:16:00;;;;;;;20.20;14.55;;;;;;;;;;5033598;28;20040;-82
2023/10/27 13:18:27;;;;;;;17.90;14.68;;;;;;;;;;5045970;28;20056;-84
2023/10/27 13:20:53;;;;;;;18.98;15.02;;;;;;;;;;5070062;28;20036;-84
2023/10/27 13:23:19;;;;;;;20.17;15.68;;;;;;;;;;5050618;28;20044;-79
2023/10/27 13:25:46;;;;;;;22.85;16.30;;;;;;;;;;5048102;28;20123;-82
2023/10/27 13:28:14;;;;;;;18.90;15.55;;;;;;;;;;5053286;28;20028;-84
2023/10/27 13:30:45;;;;;;;19.58;15.25;;;;;;;;;;5038610;28;20143;-84
2023/10/27 13:33:11;;;;;;;20.17;16.20;;;;;;;;;;5035190;28;20044;-85
2023/10/27 13:35:38;;;;;;;23.98;15.75;;;;;;;;;;5071158;28;20044;-84
2023/10/27 13:38:06;;;;;;;20.88;16.63;;;;;;;;;;5050445;28;20032;-83
2023/10/27 13:40:39;;;;;;;21.50;16.42;;;;;;;;;;5070185;28;20114;-81
2023/10/27 13:43:08;;;;;;;23.38;16.70;;;;;;;;;;5068825;28;20043;-84
2023/10/27 13:45:35;;;;;;;23.30;17.33;;;;;;;;;;5047083;28;20127;-84
2023/10/27 13:48:02;;;;;;;19.40;14.57;;;;;;;;;;5052118;28;20395;-82
2023/10/27 13:50:28;;;;;;;18.35;13.48;;;;;;;;;;5068483;28;20511;-82
2023/10/27 13:52:55;;;;;;;25.20;15.18;;;;;;;;;;5050708;28;20045;-82
2023/10/27 13:55:22;;;;;;;19.98;13.38;;;;;;;;;;5051031;28;20036;-81
2023/10/27 13:57:48;;;;;;;20.65;15.00;;;;;;;;;;5054376;28;20127;-82
2023/10/27 14:00:15;;;;;;;22.98;15.73;;;;;;;;;;5036272;28;20039;-82
2023/10/27 14:02:42;;;;;;;24.70;16.27;;;;;;;;;;5048331;28;20400;-80
2023/10/27 14:05:12;;;;;;;24.48;17.33;;;;;;;;;;5051025;28;20072;-82
2023/10/27 14:07:38;;;;;;;30.80;20.13;;;;;;;;;;5049924;28;20041;-83
2023/10/27 14:10:04;;;;;;;29.13;20.50;;;;;;;;;;5049230;28;20043;-83
2023/10/27 14:12:30;;;;;;;31.48;20.23;;;;;;;;;;5048014;28;20441;-83
2023/10/27 14:14:56;;;;;;;30.73;19.98;;;;;;;;;;5065388;28;20067;-81
2023/10/27 14:17:23;;;;;;;27.83;17.92;;;;;;;;;;5050620;28;20076;-82
2023/10/27 14:19:51;;;;;;;25.30;17.15;;;;;;;;;;5032398;28;20051;-83
2023/10/27 14:22:17;;;;;;;28.15;17.58;;;;;;;;;;5067159;28;20040;-80
2023/10/27 14:24:43;;;;;;;26.42;17.30;;;;;;;;;;5047588;28;20037;-81